Rainford, United Kingdom
Current Conditions -  °F | °C
As of 5:50 AM on Thursday 29 Jan 2015 (Local Time) from EGGP Reporting Station
Snow Showers Snow Showers  
Wind Chill: 27°   Ceiling: Unl
Heat Index: 37°   Visibility: 5mi
Dew Point: 34°   Wind: 21mph
Humidity: 87%   Direction: 260°W
Pressure: 29.12"   Gusts: NA
Location:  53.5°N, 2.79°W
Report Text: EGGP 290550Z 26018KT 8000 -SHRASN FEW010 SCT031 03/01 Q0986
Loading
Personal Weather Stations






























Interactive Weather Map New forecast layout! Learn more

10-Day Weather Forecast

Advertisements
Track Severe Weather on mobile